< < Back
Terminal Aerodrome Forecast


Current Version              Previous Versions:   1  2  3  4  5  6  7  8  9  

Terminal Aerodrome Forecast

898
FTUS42 KTAE 300520
TAFABY
TAF
KABY 300520Z 3006/3106 00000KT P6SM BKN060 OVC080
     FM301400 33005KT P6SM FEW040
     FM302000 34007KT P6SM VCSH SCT060
     FM310000 00000KT P6SM SCT250=

Latest METAR

566
SAUS70 KWBC 310600 RRK
MTRABY
METAR KABY 310553Z AUTO 00000KT 10SM CLR 23/18 A2993 RMK AO2 SLP133
T02280178 10317 20228 58007


USA.gov is the U.S. government's official web portal to all federal, state and local government web resources and services.